Главная страница
METAR-TAF:

METAR-TAF

Аэропорты :

Дакар, Сенегал

широта: 14-44N, долгота: 017-30W, высота над уровнем моря: 27 м

Текущие метеонаблюдения

Эта сводка был подготовлена 20 минут назад, в 07:00 UTC
Ветер 6 Узел от северный
Температура 18°C
Влажность 100%
Давление 1013 hPa
Видимость: 8000 м

METAR: GOOY 230700Z 36006KT 8000 NSC 18/18 Q1013

Время: 07:20 (07:20 UTC)

Прогноз

Эта сводка был подготовлена 1 час и 50 минут назад, в 05:30 UTC
Прогноз действительный с 23-го 06 UTC до 24-го 12 UTC
Ветер 10 Узел от северный
Видимость: 8000 м

TAF: GOOY 230530Z 2306/2412 35010KT 8000 NSC

Метеонаблюдения и прогнозы для более 4000 аэропортов (сводки METAR и TAF).

Имеющиеся станции представлены на карте желтыми и красными точками.

Чтобы увидеть название станции, наведите на нее мышь.

Затем щелкните, чтобы увидеть метеонаблюдения и метеопрогнозы.

Управление картой: чтобы увеличить масштаб, щелкните зеленые кнопки с черным крестиком; чтобы уменьшить масштаб, щелкните зеленую кнопку с тире; для просмотра соседних карт щелкайте зеленые стрелки.


METAR-TAF: